sensor_id;sensor_type;location;lat;lon;timestamp;pressure;altitude;pressure_sealevel;temperature;humidity
45937;BME280;31649;46.510;6.498;2022-09-17T00:00:48;97015.81;;;15.64;56.78
45937;BME280;31649;46.510;6.498;2022-09-17T00:03:14;97008.94;;;15.27;53.39
45937;BME280;31649;46.510;6.498;2022-09-17T00:05:40;97007.22;;;15.81;56.83
45937;BME280;31649;46.510;6.498;2022-09-17T00:08:08;97009.09;;;16.07;55.91
45937;BME280;31649;46.510;6.498;2022-09-17T00:10:39;97019.22;;;15.83;51.42
45937;BME280;31649;46.510;6.498;2022-09-17T00:13:05;97017.91;;;15.61;55.67
45937;BME280;31649;46.510;6.498;2022-09-17T00:15:31;97033.31;;;14.53;53.18
45937;BME280;31649;46.510;6.498;2022-09-17T00:17:56;97033.94;;;14.26;56.36
45937;BME280;31649;46.510;6.498;2022-09-17T00:20:26;97029.91;;;13.74;53.13
45937;BME280;31649;46.510;6.498;2022-09-17T00:22:58;97033.22;;;13.66;52.90
45937;BME280;31649;46.510;6.498;2022-09-17T00:25:30;97035.63;;;14.18;52.32
45937;BME280;31649;46.510;6.498;2022-09-17T00:27:55;97035.53;;;14.47;53.45
45937;BME280;31649;46.510;6.498;2022-09-17T00:30:21;97042.16;;;13.93;52.42
45937;BME280;31649;46.510;6.498;2022-09-17T00:32:46;97052.81;;;14.68;57.59
45937;BME280;31649;46.510;6.498;2022-09-17T00:35:11;97048.72;;;14.56;53.30
45937;BME280;31649;46.510;6.498;2022-09-17T00:37:36;97045.59;;;13.94;49.91
45937;BME280;31649;46.510;6.498;2022-09-17T00:40:02;97050.44;;;14.37;52.71
45937;BME280;31649;46.510;6.498;2022-09-17T00:42:28;97050.28;;;13.71;49.35
45937;BME280;31649;46.510;6.498;2022-09-17T00:44:55;97049.19;;;13.73;53.24
45937;BME280;31649;46.510;6.498;2022-09-17T00:47:36;97052.88;;;13.90;52.74
45937;BME280;31649;46.510;6.498;2022-09-17T00:50:11;97054.69;;;13.60;51.07
45937;BME280;31649;46.510;6.498;2022-09-17T00:53:04;97047.78;;;13.89;54.18
45937;BME280;31649;46.510;6.498;2022-09-17T00:55:38;97054.19;;;13.15;51.53
45937;BME280;31649;46.510;6.498;2022-09-17T00:58:07;97048.19;;;13.44;53.72
45937;BME280;31649;46.510;6.498;2022-09-17T01:00:34;97047.25;;;13.55;52.65
45937;BME280;31649;46.510;6.498;2022-09-17T01:02:59;97053.94;;;14.18;54.83
45937;BME280;31649;46.510;6.498;2022-09-17T01:08:37;97055.69;;;15.03;53.41
45937;BME280;31649;46.510;6.498;2022-09-17T01:32:57;97073.66;;;13.82;54.52
45937;BME280;31649;46.510;6.498;2022-09-17T01:35:56;97082.19;;;14.04;54.23
45937;BME280;31649;46.510;6.498;2022-09-17T01:44:25;97089.78;;;13.67;50.91
45937;BME280;31649;46.510;6.498;2022-09-17T01:47:03;97096.53;;;13.90;50.67
45937;BME280;31649;46.510;6.498;2022-09-17T01:49:31;97099.41;;;14.16;50.22
45937;BME280;31649;46.510;6.498;2022-09-17T01:51:59;97093.25;;;14.94;53.60
45937;BME280;31649;46.510;6.498;2022-09-17T01:54:32;97095.09;;;14.83;52.17
45937;BME280;31649;46.510;6.498;2022-09-17T01:57:06;97091.19;;;14.49;51.77
45937;BME280;31649;46.510;6.498;2022-09-17T01:59:38;97099.66;;;15.09;52.14
45937;BME280;31649;46.510;6.498;2022-09-17T02:02:10;97090.94;;;15.37;51.33
45937;BME280;31649;46.510;6.498;2022-09-17T02:04:43;97083.59;;;15.23;51.10
45937;BME280;31649;46.510;6.498;2022-09-17T02:07:18;97092.22;;;15.33;51.33
45937;BME280;31649;46.510;6.498;2022-09-17T02:10:14;97088.94;;;15.49;52.93
45937;BME280;31649;46.510;6.498;2022-09-17T02:12:44;97095.44;;;15.27;51.78
45937;BME280;31649;46.510;6.498;2022-09-17T02:15:19;97088.63;;;15.34;51.35
45937;BME280;31649;46.510;6.498;2022-09-17T02:17:49;97084.66;;;15.30;53.18
45937;BME280;31649;46.510;6.498;2022-09-17T02:20:17;97087.66;;;15.35;52.51
45937;BME280;31649;46.510;6.498;2022-09-17T02:22:49;97086.31;;;15.31;50.34
45937;BME280;31649;46.510;6.498;2022-09-17T02:25:46;97093.22;;;15.32;52.20
45937;BME280;31649;46.510;6.498;2022-09-17T02:28:16;97091.63;;;15.39;52.20
45937;BME280;31649;46.510;6.498;2022-09-17T02:30:43;97088.66;;;15.52;52.73
45937;BME280;31649;46.510;6.498;2022-09-17T02:33:12;97086.09;;;15.42;52.13
45937;BME280;31649;46.510;6.498;2022-09-17T02:35:38;97088.25;;;15.29;53.57
45937;BME280;31649;46.510;6.498;2022-09-17T02:38:04;97103.91;;;15.39;52.10
45937;BME280;31649;46.510;6.498;2022-09-17T02:40:34;97102.72;;;15.51;52.71
45937;BME280;31649;46.510;6.498;2022-09-17T02:43:12;97105.06;;;15.54;52.62
45937;BME280;31649;46.510;6.498;2022-09-17T02:54:16;97105.91;;;15.27;53.54
45937;BME280;31649;46.510;6.498;2022-09-17T02:57:06;97119.19;;;15.25;53.21
45937;BME280;31649;46.510;6.498;2022-09-17T02:59:42;97119.13;;;15.35;54.00
45937;BME280;31649;46.510;6.498;2022-09-17T03:02:18;97127.59;;;15.47;53.86
45937;BME280;31649;46.510;6.498;2022-09-17T03:04:47;97123.59;;;15.25;53.52
45937;BME280;31649;46.510;6.498;2022-09-17T03:07:13;97126.22;;;14.87;51.11
45937;BME280;31649;46.510;6.498;2022-09-17T03:09:39;97122.53;;;15.17;54.30
45937;BME280;31649;46.510;6.498;2022-09-17T03:12:05;97124.22;;;15.08;52.62
45937;BME280;31649;46.510;6.498;2022-09-17T03:14:31;97117.13;;;15.19;52.67
45937;BME280;31649;46.510;6.498;2022-09-17T03:16:56;97123.88;;;14.93;52.34
45937;BME280;31649;46.510;6.498;2022-09-17T03:19:22;97115.63;;;15.16;52.91
45937;BME280;31649;46.510;6.498;2022-09-17T03:21:47;97121.56;;;15.37;53.53
45937;BME280;31649;46.510;6.498;2022-09-17T03:24:13;97131.25;;;15.36;51.81
45937;BME280;31649;46.510;6.498;2022-09-17T03:26:38;97123.81;;;15.03;51.92
45937;BME280;31649;46.510;6.498;2022-09-17T03:29:04;97124.06;;;15.10;51.82
45937;BME280;31649;46.510;6.498;2022-09-17T03:31:29;97130.16;;;14.62;51.63
45937;BME280;31649;46.510;6.498;2022-09-17T03:33:55;97135.06;;;14.85;52.06
45937;BME280;31649;46.510;6.498;2022-09-17T03:36:20;97140.31;;;15.14;52.54
45937;BME280;31649;46.510;6.498;2022-09-17T03:38:45;97143.88;;;15.23;52.10
45937;BME280;31649;46.510;6.498;2022-09-17T03:41:11;97152.31;;;15.16;49.88
45937;BME280;31649;46.510;6.498;2022-09-17T03:43:36;97143.97;;;15.31;51.14
45937;BME280;31649;46.510;6.498;2022-09-17T03:46:02;97152.91;;;15.10;50.69
45937;BME280;31649;46.510;6.498;2022-09-17T03:48:27;97159.84;;;13.93;49.26
45937;BME280;31649;46.510;6.498;2022-09-17T03:50:53;97157.75;;;13.57;52.75
45937;BME280;31649;46.510;6.498;2022-09-17T03:53:19;97157.94;;;13.34;54.13
45937;BME280;31649;46.510;6.498;2022-09-17T03:55:44;97150.41;;;13.51;55.19
45937;BME280;31649;46.510;6.498;2022-09-17T03:58:09;97149.25;;;12.93;52.82
45937;BME280;31649;46.510;6.498;2022-09-17T04:00:35;97152.94;;;13.21;55.38
45937;BME280;31649;46.510;6.498;2022-09-17T04:03:04;97156.28;;;14.04;54.86
45937;BME280;31649;46.510;6.498;2022-09-17T04:05:29;97157.94;;;13.86;53.08
45937;BME280;31649;46.510;6.498;2022-09-17T04:07:55;97162.47;;;14.33;55.26
45937;BME280;31649;46.510;6.498;2022-09-17T04:10:20;97169.47;;;13.73;52.33
45937;BME280;31649;46.510;6.498;2022-09-17T04:12:45;97168.94;;;14.19;53.91
45937;BME280;31649;46.510;6.498;2022-09-17T04:15:11;97181.72;;;13.83;53.38
45937;BME280;31649;46.510;6.498;2022-09-17T04:17:36;97188.22;;;13.47;55.99
45937;BME280;31649;46.510;6.498;2022-09-17T04:20:03;97188.56;;;13.22;53.14
45937;BME280;31649;46.510;6.498;2022-09-17T04:22:28;97190.97;;;12.73;54.19
45937;BME280;31649;46.510;6.498;2022-09-17T04:24:53;97186.06;;;12.04;54.26
45937;BME280;31649;46.510;6.498;2022-09-17T04:27:19;97195.16;;;11.77;54.97
45937;BME280;31649;46.510;6.498;2022-09-17T04:29:44;97191.63;;;11.55;55.62
45937;BME280;31649;46.510;6.498;2022-09-17T04:32:10;97191.50;;;12.01;55.70
45937;BME280;31649;46.510;6.498;2022-09-17T04:34:35;97189.19;;;11.86;55.57
45937;BME280;31649;46.510;6.498;2022-09-17T04:37:00;97193.16;;;11.46;56.06
45937;BME280;31649;46.510;6.498;2022-09-17T04:39:26;97203.09;;;11.52;54.96
45937;BME280;31649;46.510;6.498;2022-09-17T04:41:51;97210.81;;;11.54;59.02
45937;BME280;31649;46.510;6.498;2022-09-17T04:44:16;97205.53;;;12.33;58.18
45937;BME280;31649;46.510;6.498;2022-09-17T04:46:42;97210.91;;;13.05;56.53
45937;BME280;31649;46.510;6.498;2022-09-17T04:49:07;97217.50;;;13.72;54.58
45937;BME280;31649;46.510;6.498;2022-09-17T04:51:33;97208.47;;;13.14;52.97
45937;BME280;31649;46.510;6.498;2022-09-17T04:53:58;97209.16;;;13.16;56.26
45937;BME280;31649;46.510;6.498;2022-09-17T04:56:23;97215.06;;;13.08;52.71
45937;BME280;31649;46.510;6.498;2022-09-17T04:58:49;97210.91;;;12.19;54.79
45937;BME280;31649;46.510;6.498;2022-09-17T05:01:14;97213.00;;;11.81;56.41
45937;BME280;31649;46.510;6.498;2022-09-17T05:03:42;97212.50;;;11.99;55.33
45937;BME280;31649;46.510;6.498;2022-09-17T05:06:08;97222.50;;;13.13;56.56
45937;BME280;31649;46.510;6.498;2022-09-17T05:08:33;97222.72;;;13.62;55.35
45937;BME280;31649;46.510;6.498;2022-09-17T05:10:58;97236.66;;;13.92;54.57
45937;BME280;31649;46.510;6.498;2022-09-17T05:13:24;97236.25;;;13.77;53.60
45937;BME280;31649;46.510;6.498;2022-09-17T05:15:49;97234.34;;;13.99;53.55
45937;BME280;31649;46.510;6.498;2022-09-17T05:18:14;97240.69;;;14.16;53.05
45937;BME280;31649;46.510;6.498;2022-09-17T05:20:40;97234.38;;;14.19;53.63
45937;BME280;31649;46.510;6.498;2022-09-17T05:23:06;97230.78;;;14.20;53.66
45937;BME280;31649;46.510;6.498;2022-09-17T05:25:32;97230.78;;;14.20;53.83
45937;BME280;31649;46.510;6.498;2022-09-17T05:27:57;97241.38;;;14.19;53.62
45937;BME280;31649;46.510;6.498;2022-09-17T05:30:22;97240.00;;;14.34;54.29
45937;BME280;31649;46.510;6.498;2022-09-17T05:32:48;97238.38;;;14.23;53.78
45937;BME280;31649;46.510;6.498;2022-09-17T05:35:13;97239.88;;;14.36;54.07
45937;BME280;31649;46.510;6.498;2022-09-17T05:37:39;97243.59;;;14.43;53.56
45937;BME280;31649;46.510;6.498;2022-09-17T05:40:05;97243.59;;;14.23;52.60
45937;BME280;31649;46.510;6.498;2022-09-17T05:42:32;97241.53;;;14.57;52.93
45937;BME280;31649;46.510;6.498;2022-09-17T05:44:57;97248.00;;;14.53;53.19
45937;BME280;31649;46.510;6.498;2022-09-17T05:47:23;97240.28;;;14.51;52.72
45937;BME280;31649;46.510;6.498;2022-09-17T05:49:48;97241.94;;;14.12;53.26
45937;BME280;31649;46.510;6.498;2022-09-17T05:52:14;97231.03;;;13.97;53.08
45937;BME280;31649;46.510;6.498;2022-09-17T05:54:39;97231.25;;;13.33;54.73
45937;BME280;31649;46.510;6.498;2022-09-17T05:57:04;97231.25;;;13.02;55.39
45937;BME280;31649;46.510;6.498;2022-09-17T05:59:30;97243.50;;;13.42;53.81
45937;BME280;31649;46.510;6.498;2022-09-17T06:01:56;97232.34;;;12.77;52.79
45937;BME280;31649;46.510;6.498;2022-09-17T06:04:21;97240.06;;;12.25;53.73
45937;BME280;31649;46.510;6.498;2022-09-17T06:06:46;97250.34;;;11.82;54.75
45937;BME280;31649;46.510;6.498;2022-09-17T06:09:12;97260.19;;;11.78;55.15
45937;BME280;31649;46.510;6.498;2022-09-17T06:11:37;97254.97;;;11.67;54.96
45937;BME280;31649;46.510;6.498;2022-09-17T06:14:03;97258.09;;;11.49;55.17
45937;BME280;31649;46.510;6.498;2022-09-17T06:16:28;97252.28;;;11.57;55.90
45937;BME280;31649;46.510;6.498;2022-09-17T06:18:54;97251.41;;;11.79;56.06
45937;BME280;31649;46.510;6.498;2022-09-17T06:21:20;97245.13;;;11.82;56.19
45937;BME280;31649;46.510;6.498;2022-09-17T06:23:46;97236.81;;;12.00;55.91
45937;BME280;31649;46.510;6.498;2022-09-17T06:26:12;97245.00;;;11.95;55.08
45937;BME280;31649;46.510;6.498;2022-09-17T06:28:37;97255.19;;;11.87;55.34
45937;BME280;31649;46.510;6.498;2022-09-17T06:31:05;97253.44;;;11.76;55.68
45937;BME280;31649;46.510;6.498;2022-09-17T06:33:31;97250.34;;;11.82;55.49
45937;BME280;31649;46.510;6.498;2022-09-17T06:36:01;97241.06;;;12.12;55.96
45937;BME280;31649;46.510;6.498;2022-09-17T06:38:28;97250.78;;;12.43;54.75
45937;BME280;31649;46.510;6.498;2022-09-17T06:40:54;97242.78;;;12.56;54.77
45937;BME280;31649;46.510;6.498;2022-09-17T06:43:20;97247.75;;;12.59;53.61
45937;BME280;31649;46.510;6.498;2022-09-17T06:48:18;97263.16;;;11.85;54.87
45937;BME280;31649;46.510;6.498;2022-09-17T06:50:43;97256.00;;;11.99;55.59
45937;BME280;31649;46.510;6.498;2022-09-17T06:53:09;97258.69;;;12.08;55.26
45937;BME280;31649;46.510;6.498;2022-09-17T06:55:34;97268.38;;;11.73;55.17
45937;BME280;31649;46.510;6.498;2022-09-17T06:57:59;97272.03;;;11.82;55.06
45937;BME280;31649;46.510;6.498;2022-09-17T07:00:25;97276.63;;;12.02;54.48
45937;BME280;31649;46.510;6.498;2022-09-17T07:02:58;97276.25;;;12.06;55.31
45937;BME280;31649;46.510;6.498;2022-09-17T07:05:26;97278.06;;;11.94;53.89
45937;BME280;31649;46.510;6.498;2022-09-17T07:07:52;97279.03;;;11.82;52.46
45937;BME280;31649;46.510;6.498;2022-09-17T07:10:18;97277.69;;;11.88;53.15
45937;BME280;31649;46.510;6.498;2022-09-17T07:12:44;97276.06;;;11.87;53.66
45937;BME280;31649;46.510;6.498;2022-09-17T07:15:10;97278.41;;;11.90;52.22
45937;BME280;31649;46.510;6.498;2022-09-17T07:17:39;97291.56;;;11.88;53.16
45937;BME280;31649;46.510;6.498;2022-09-17T07:20:08;97290.88;;;11.98;52.91
45937;BME280;31649;46.510;6.498;2022-09-17T07:22:34;97300.31;;;12.10;53.51
45937;BME280;31649;46.510;6.498;2022-09-17T07:25:00;97297.81;;;12.08;51.52
45937;BME280;31649;46.510;6.498;2022-09-17T07:27:26;97296.84;;;12.33;53.70
45937;BME280;31649;46.510;6.498;2022-09-17T07:29:52;97305.41;;;12.23;53.26
45937;BME280;31649;46.510;6.498;2022-09-17T07:32:18;97302.91;;;12.22;53.20
45937;BME280;31649;46.510;6.498;2022-09-17T07:34:43;97309.31;;;12.29;52.39
45937;BME280;31649;46.510;6.498;2022-09-17T07:37:08;97299.75;;;12.51;54.30
45937;BME280;31649;46.510;6.498;2022-09-17T07:39:34;97300.13;;;12.46;52.64
45937;BME280;31649;46.510;6.498;2022-09-17T07:41:59;97302.97;;;12.43;52.81
45937;BME280;31649;46.510;6.498;2022-09-17T07:44:25;97296.00;;;12.44;51.30
45937;BME280;31649;46.510;6.498;2022-09-17T07:46:50;97297.88;;;12.74;52.08
45937;BME280;31649;46.510;6.498;2022-09-17T07:49:15;97291.38;;;12.69;51.25
45937;BME280;31649;46.510;6.498;2022-09-17T07:51:41;97297.09;;;12.62;51.25
45937;BME280;31649;46.510;6.498;2022-09-17T07:54:06;97305.72;;;12.41;50.26
45937;BME280;31649;46.510;6.498;2022-09-17T07:56:32;97314.13;;;12.45;52.00
45937;BME280;31649;46.510;6.498;2022-09-17T07:58:57;97303.66;;;12.78;52.09
45937;BME280;31649;46.510;6.498;2022-09-17T08:01:23;97309.47;;;13.03;52.41
45937;BME280;31649;46.510;6.498;2022-09-17T08:03:52;97311.97;;;12.83;49.49
45937;BME280;31649;46.510;6.498;2022-09-17T08:06:20;97321.44;;;12.84;49.85
45937;BME280;31649;46.510;6.498;2022-09-17T08:08:46;97332.72;;;12.85;49.94
45937;BME280;31649;46.510;6.498;2022-09-17T08:11:15;97328.75;;;12.69;49.87
45937;BME280;31649;46.510;6.498;2022-09-17T08:13:41;97335.91;;;12.88;50.27
45937;BME280;31649;46.510;6.498;2022-09-17T08:16:09;97336.91;;;12.76;49.15
45937;BME280;31649;46.510;6.498;2022-09-17T08:18:35;97333.88;;;13.14;53.61
45937;BME280;31649;46.510;6.498;2022-09-17T08:21:02;97345.03;;;13.37;48.24
45937;BME280;31649;46.510;6.498;2022-09-17T08:23:29;97354.88;;;13.76;50.40
45937;BME280;31649;46.510;6.498;2022-09-17T08:25:56;97347.38;;;13.93;51.51
45937;BME280;31649;46.510;6.498;2022-09-17T08:28:24;97354.16;;;13.74;47.18
45937;BME280;31649;46.510;6.498;2022-09-17T08:30:51;97350.63;;;13.75;48.77
45937;BME280;31649;46.510;6.498;2022-09-17T08:33:17;97359.19;;;13.56;48.65
45937;BME280;31649;46.510;6.498;2022-09-17T08:35:52;97357.13;;;13.60;47.90
45937;BME280;31649;46.510;6.498;2022-09-17T08:38:18;97362.13;;;13.94;49.51
45937;BME280;31649;46.510;6.498;2022-09-17T08:40:55;97373.88;;;14.20;49.29
45937;BME280;31649;46.510;6.498;2022-09-17T08:43:26;97364.28;;;13.89;45.77
45937;BME280;31649;46.510;6.498;2022-09-17T08:45:54;97378.22;;;13.68;46.85
45937;BME280;31649;46.510;6.498;2022-09-17T08:48:22;97376.28;;;13.60;47.53
45937;BME280;31649;46.510;6.498;2022-09-17T08:50:49;97368.13;;;13.85;47.07
45937;BME280;31649;46.510;6.498;2022-09-17T08:53:39;97376.78;;;14.26;49.92
45937;BME280;31649;46.510;6.498;2022-09-17T08:56:17;97381.13;;;14.57;46.82
45937;BME280;31649;46.510;6.498;2022-09-17T09:01:50;97379.34;;;14.58;44.67
45937;BME280;31649;46.510;6.498;2022-09-17T09:06:59;97394.78;;;14.81;46.12
45937;BME280;31649;46.510;6.498;2022-09-17T09:09:30;97377.25;;;14.42;47.30
45937;BME280;31649;46.510;6.498;2022-09-17T09:12:09;97382.38;;;14.83;46.22
45937;BME280;31649;46.510;6.498;2022-09-17T09:14:44;97387.25;;;14.26;45.50
45937;BME280;31649;46.510;6.498;2022-09-17T09:17:12;97384.81;;;14.45;45.96
45937;BME280;31649;46.510;6.498;2022-09-17T09:19:44;97381.66;;;14.41;47.12
45937;BME280;31649;46.510;6.498;2022-09-17T09:28:01;97382.56;;;15.01;44.81
45937;BME280;31649;46.510;6.498;2022-09-17T09:30:22;97376.09;;;15.15;46.56
45937;BME280;31649;46.510;6.498;2022-09-17T09:35:33;97383.34;;;15.41;45.84
45937;BME280;31649;46.510;6.498;2022-09-17T09:38:17;97381.44;;;15.14;45.19
45937;BME280;31649;46.510;6.498;2022-09-17T09:46:39;97381.63;;;15.60;42.05
45937;BME280;31649;46.510;6.498;2022-09-17T09:55:24;97394.44;;;15.73;41.93
45937;BME280;31649;46.510;6.498;2022-09-17T10:00:50;97397.34;;;15.80;43.00
45937;BME280;31649;46.510;6.498;2022-09-17T10:06:03;97404.13;;;16.86;41.59
45937;BME280;31649;46.510;6.498;2022-09-17T10:08:35;97402.78;;;17.18;43.33
45937;BME280;31649;46.510;6.498;2022-09-17T10:11:19;97399.78;;;16.94;40.25
45937;BME280;31649;46.510;6.498;2022-09-17T10:13:45;97409.28;;;16.03;40.51
45937;BME280;31649;46.510;6.498;2022-09-17T10:16:22;97399.53;;;16.23;44.63
45937;BME280;31649;46.510;6.498;2022-09-17T10:19:10;97390.81;;;16.51;40.96
45937;BME280;31649;46.510;6.498;2022-09-17T10:21:37;97394.38;;;15.55;42.00
45937;BME280;31649;46.510;6.498;2022-09-17T10:24:27;97397.56;;;15.49;43.13
45937;BME280;31649;46.510;6.498;2022-09-17T10:27:05;97383.56;;;16.06;43.79
45937;BME280;31649;46.510;6.498;2022-09-17T10:29:32;97385.56;;;16.51;42.93
45937;BME280;31649;46.510;6.498;2022-09-17T10:31:58;97394.44;;;16.86;40.11
45937;BME280;31649;46.510;6.498;2022-09-17T10:34:29;97398.41;;;17.09;39.94
45937;BME280;31649;46.510;6.498;2022-09-17T10:36:55;97401.34;;;17.05;39.53
45937;BME280;31649;46.510;6.498;2022-09-17T10:42:13;97398.03;;;17.03;41.18
45937;BME280;31649;46.510;6.498;2022-09-17T10:47:23;97394.38;;;16.78;40.16
45937;BME280;31649;46.510;6.498;2022-09-17T10:52:28;97397.00;;;16.78;41.46
45937;BME280;31649;46.510;6.498;2022-09-17T10:57:47;97384.13;;;17.29;40.04
45937;BME280;31649;46.510;6.498;2022-09-17T11:00:19;97378.94;;;17.38;39.44
45937;BME280;31649;46.510;6.498;2022-09-17T11:03:07;97380.88;;;17.62;40.99
45937;BME280;31649;46.510;6.498;2022-09-17T11:11:50;97381.56;;;17.38;38.67
45937;BME280;31649;46.510;6.498;2022-09-17T11:21:08;97383.59;;;16.34;35.27
45937;BME280;31649;46.510;6.498;2022-09-17T11:26:07;97377.59;;;16.61;37.28
45937;BME280;31649;46.510;6.498;2022-09-17T11:31:23;97376.25;;;16.56;37.80
45937;BME280;31649;46.510;6.498;2022-09-17T11:37:04;97374.75;;;17.09;37.39
45937;BME280;31649;46.510;6.498;2022-09-17T11:39:55;97376.53;;;17.08;38.34
45937;BME280;31649;46.510;6.498;2022-09-17T11:42:25;97376.84;;;16.68;36.78
45937;BME280;31649;46.510;6.498;2022-09-17T11:44:56;97386.84;;;16.65;37.06
45937;BME280;31649;46.510;6.498;2022-09-17T11:47:40;97383.63;;;16.89;37.33
45937;BME280;31649;46.510;6.498;2022-09-17T11:50:21;97388.59;;;16.92;36.77
45937;BME280;31649;46.510;6.498;2022-09-17T11:55:49;97388.06;;;16.89;39.59
45937;BME280;31649;46.510;6.498;2022-09-17T12:00:51;97389.88;;;16.70;39.09
45937;BME280;31649;46.510;6.498;2022-09-17T12:03:27;97392.03;;;16.93;38.54
45937;BME280;31649;46.510;6.498;2022-09-17T12:05:56;97388.94;;;16.79;38.60
45937;BME280;31649;46.510;6.498;2022-09-17T12:08:42;97392.09;;;16.46;39.42
45937;BME280;31649;46.510;6.498;2022-09-17T12:11:26;97388.16;;;16.32;40.73
45937;BME280;31649;46.510;6.498;2022-09-17T12:14:01;97385.63;;;16.41;40.64
45937;BME280;31649;46.510;6.498;2022-09-17T12:16:48;97369.97;;;16.49;41.02
45937;BME280;31649;46.510;6.498;2022-09-17T12:19:22;97369.34;;;16.55;40.44
45937;BME280;31649;46.510;6.498;2022-09-17T12:22:24;97368.09;;;16.59;40.81
45937;BME280;31649;46.510;6.498;2022-09-17T12:24:41;97373.53;;;16.30;39.31
45937;BME280;31649;46.510;6.498;2022-09-17T12:35:13;97366.91;;;17.35;39.00
45937;BME280;31649;46.510;6.498;2022-09-17T12:43:53;97352.56;;;18.18;37.94
45937;BME280;31649;46.510;6.498;2022-09-17T12:49:33;97349.94;;;17.83;37.27
45937;BME280;31649;46.510;6.498;2022-09-17T13:00:26;97350.25;;;17.08;40.31
45937;BME280;31649;46.510;6.498;2022-09-17T13:11:21;97353.84;;;19.24;34.06
45937;BME280;31649;46.510;6.498;2022-09-17T13:14:16;97340.16;;;19.94;33.11
45937;BME280;31649;46.510;6.498;2022-09-17T13:21:54;97345.03;;;20.14;33.78
45937;BME280;31649;46.510;6.498;2022-09-17T13:24:26;97343.84;;;19.76;34.46
45937;BME280;31649;46.510;6.498;2022-09-17T13:26:54;97355.13;;;18.86;36.17
45937;BME280;31649;46.510;6.498;2022-09-17T13:42:52;97359.34;;;17.32;39.84
45937;BME280;31649;46.510;6.498;2022-09-17T13:45:20;97358.56;;;17.40;39.63
45937;BME280;31649;46.510;6.498;2022-09-17T13:50:28;97364.00;;;17.02;38.89
45937;BME280;31649;46.510;6.498;2022-09-17T13:52:56;97364.19;;;16.82;38.82
45937;BME280;31649;46.510;6.498;2022-09-17T13:55:35;97362.19;;;17.21;38.75
45937;BME280;31649;46.510;6.498;2022-09-17T13:58:07;97360.78;;;18.23;37.02
45937;BME280;31649;46.510;6.498;2022-09-17T14:00:57;97359.03;;;17.97;36.27
45937;BME280;31649;46.510;6.498;2022-09-17T14:13:51;97372.28;;;18.99;35.68
45937;BME280;31649;46.510;6.498;2022-09-17T14:19:30;97372.94;;;18.93;34.03
45937;BME280;31649;46.510;6.498;2022-09-17T14:22:00;97364.66;;;18.46;36.37
45937;BME280;31649;46.510;6.498;2022-09-17T14:30:22;97372.13;;;19.25;35.99
45937;BME280;31649;46.510;6.498;2022-09-17T14:40:44;97352.34;;;19.30;34.35
45937;BME280;31649;46.510;6.498;2022-09-17T14:43:18;97367.72;;;18.24;35.61
45937;BME280;31649;46.510;6.498;2022-09-17T14:45:47;97385.75;;;18.54;35.31
45937;BME280;31649;46.510;6.498;2022-09-17T14:48:27;97370.63;;;18.64;35.83
45937;BME280;31649;46.510;6.498;2022-09-17T14:53:48;97369.22;;;18.27;34.46
45937;BME280;31649;46.510;6.498;2022-09-17T14:56:23;97360.66;;;18.25;34.44
45937;BME280;31649;46.510;6.498;2022-09-17T14:58:51;97365.13;;;18.41;34.82
45937;BME280;31649;46.510;6.498;2022-09-17T15:01:21;97365.78;;;18.00;34.88
45937;BME280;31649;46.510;6.498;2022-09-17T15:03:48;97358.66;;;18.18;34.27
45937;BME280;31649;46.510;6.498;2022-09-17T15:06:20;97355.03;;;18.28;35.19
45937;BME280;31649;46.510;6.498;2022-09-17T15:08:46;97367.13;;;18.55;35.64
45937;BME280;31649;46.510;6.498;2022-09-17T15:11:12;97374.59;;;19.10;34.25
45937;BME280;31649;46.510;6.498;2022-09-17T15:13:46;97363.44;;;19.17;33.98
45937;BME280;31649;46.510;6.498;2022-09-17T15:16:43;97367.34;;;19.04;34.80
45937;BME280;31649;46.510;6.498;2022-09-17T15:19:11;97379.22;;;18.83;32.10
45937;BME280;31649;46.510;6.498;2022-09-17T15:21:45;97369.91;;;18.37;31.02
45937;BME280;31649;46.510;6.498;2022-09-17T15:24:31;97376.22;;;18.70;30.45
45937;BME280;31649;46.510;6.498;2022-09-17T15:27:03;97368.53;;;19.27;32.30
45937;BME280;31649;46.510;6.498;2022-09-17T15:29:32;97364.91;;;19.93;31.25
45937;BME280;31649;46.510;6.498;2022-09-17T15:32:02;97368.56;;;19.92;31.55
45937;BME280;31649;46.510;6.498;2022-09-17T15:34:29;97367.69;;;19.34;30.51
45937;BME280;31649;46.510;6.498;2022-09-17T15:39:41;97370.97;;;19.45;30.90
45937;BME280;31649;46.510;6.498;2022-09-17T15:42:20;97367.25;;;18.02;31.13
45937;BME280;31649;46.510;6.498;2022-09-17T15:44:46;97372.47;;;17.85;32.40
45937;BME280;31649;46.510;6.498;2022-09-17T15:50:17;97377.75;;;18.20;31.52
45937;BME280;31649;46.510;6.498;2022-09-17T15:52:43;97382.59;;;18.07;33.10
45937;BME280;31649;46.510;6.498;2022-09-17T15:55:29;97381.16;;;17.78;33.57
45937;BME280;31649;46.510;6.498;2022-09-17T15:57:57;97378.09;;;17.37;33.82
45937;BME280;31649;46.510;6.498;2022-09-17T16:00:23;97383.69;;;16.98;34.13
45937;BME280;31649;46.510;6.498;2022-09-17T16:02:48;97372.38;;;17.69;34.45
45937;BME280;31649;46.510;6.498;2022-09-17T16:07:45;97386.69;;;18.01;33.43
45937;BME280;31649;46.510;6.498;2022-09-17T16:10:13;97381.09;;;17.16;34.96
45937;BME280;31649;46.510;6.498;2022-09-17T16:12:39;97379.84;;;18.17;34.12
45937;BME280;31649;46.510;6.498;2022-09-17T16:15:05;97382.06;;;17.95;35.24
45937;BME280;31649;46.510;6.498;2022-09-17T16:17:44;97378.25;;;17.62;35.72
45937;BME280;31649;46.510;6.498;2022-09-17T16:20:18;97386.34;;;18.04;34.79
45937;BME280;31649;46.510;6.498;2022-09-17T16:22:45;97377.41;;;17.89;35.71
45937;BME280;31649;46.510;6.498;2022-09-17T16:25:14;97383.63;;;18.14;36.51
45937;BME280;31649;46.510;6.498;2022-09-17T16:27:52;97384.88;;;18.02;34.51
45937;BME280;31649;46.510;6.498;2022-09-17T16:30:21;97384.84;;;17.93;34.45
45937;BME280;31649;46.510;6.498;2022-09-17T16:32:47;97382.44;;;17.73;34.13
45937;BME280;31649;46.510;6.498;2022-09-17T16:35:15;97382.13;;;17.50;33.63
45937;BME280;31649;46.510;6.498;2022-09-17T16:37:40;97387.56;;;17.48;35.91